Time;durP1;ratioP1;P1;durP2;ratioP2;P2;SDS_P1;SDS_P2;PMS_P1;PMS_P2;Temp;Humidity;BMP_temperature;BMP_pressure;BME280_temperature;BME280_humidity;BME280_pressure;Samples;Min_cycle;Max_cycle;Signal;HPM_P1;HPM_P2
2023/09/17 00:02:15;;;;;;;4.45;3.10;;;21.30;70.60;;;;;;5109739;28;20039;-66
2023/09/17 00:04:41;;;;;;;3.95;2.80;;;21.30;70.50;;;;;;5093874;28;20528;-66
2023/09/17 00:07:06;;;;;;;5.75;3.38;;;21.30;70.60;;;;;;5075714;28;20078;-66
2023/09/17 00:09:32;;;;;;;4.63;2.90;;;21.30;70.50;;;;;;5074353;28;20040;-66
2023/09/17 00:11:57;;;;;;;4.72;3.17;;;21.30;70.50;;;;;;5069114;28;20480;-65
2023/09/17 00:14:23;;;;;;;4.82;3.17;;;21.30;70.50;;;;;;5072518;28;20075;-65
2023/09/17 00:16:48;;;;;;;6.57;3.40;;;21.30;70.50;;;;;;5073659;28;20058;-65
2023/09/17 00:19:14;;;;;;;3.95;2.90;;;21.30;70.50;;;;;;5057557;28;20040;-66
2023/09/17 00:21:40;;;;;;;4.18;2.70;;;21.30;70.50;;;;;;5089796;28;20149;-66
2023/09/17 00:24:06;;;;;;;4.55;2.97;;;21.30;70.60;;;;;;5090926;28;20044;-66
2023/09/17 00:26:31;;;;;;;4.30;3.47;;;21.30;70.60;;;;;;5092122;28;20050;-67
2023/09/17 00:28:57;;;;;;;5.15;3.38;;;21.30;70.50;;;;;;5091060;28;20028;-66
2023/09/17 00:31:23;;;;;;;4.28;2.97;;;21.30;70.50;;;;;;5090415;28;20495;-66
2023/09/17 00:33:48;;;;;;;4.97;2.95;;;21.30;70.50;;;;;;5090597;28;20040;-66
2023/09/17 00:36:14;;;;;;;4.95;3.10;;;21.30;70.50;;;;;;5090449;28;20135;-66
2023/09/17 00:38:39;;;;;;;4.57;3.40;;;21.30;70.50;;;;;;5093907;28;20052;-65
2023/09/17 00:41:05;;;;;;;4.65;3.05;;;21.30;70.50;;;;;;5095656;28;20109;-66
2023/09/17 00:43:31;;;;;;;4.57;3.13;;;21.30;70.50;;;;;;5073448;28;20079;-66
2023/09/17 00:45:56;;;;;;;4.03;3.00;;;21.30;70.50;;;;;;5075120;28;20105;-66
2023/09/17 00:48:22;;;;;;;4.50;3.00;;;21.30;70.50;;;;;;5091770;28;20134;-65
2023/09/17 00:50:47;;;;;;;4.65;3.15;;;21.30;70.50;;;;;;5093686;28;20498;-65
2023/09/17 00:53:13;;;;;;;3.97;2.85;;;21.30;70.50;;;;;;5077469;28;20044;-66
2023/09/17 00:55:39;;;;;;;5.25;3.50;;;21.30;70.50;;;;;;5092849;28;20066;-65
2023/09/17 00:58:05;;;;;;;4.85;3.15;;;21.30;70.50;;;;;;5077083;28;20040;-65
2023/09/17 01:00:33;;;;;;;5.55;3.60;;;21.30;70.50;;;;;;5077318;28;20055;-65
2023/09/17 01:03:03;;;;;;;4.97;3.47;;;21.30;70.50;;;;;;5076628;28;20039;-66
2023/09/17 01:05:36;;;;;;;5.40;3.60;;;21.30;70.60;;;;;;5077815;28;20480;-65
2023/09/17 01:08:09;;;;;;;5.30;3.28;;;21.30;70.50;;;;;;5094235;28;20097;-66
2023/09/17 01:10:35;;;;;;;3.92;2.72;;;21.20;70.50;;;;;;5092891;28;20048;-66
2023/09/17 01:13:02;;;;;;;3.90;3.03;;;21.20;70.50;;;;;;5094880;28;20040;-66
2023/09/17 01:15:28;;;;;;;4.47;3.22;;;21.30;70.50;;;;;;5094942;28;20036;-66
2023/09/17 01:17:54;;;;;;;4.72;3.15;;;21.30;70.50;;;;;;5092454;28;20051;-66
2023/09/17 01:20:29;;;;;;;4.57;3.20;;;21.20;70.50;;;;;;5060384;28;20055;-66
2023/09/17 01:22:59;;;;;;;4.50;2.90;;;21.20;70.50;;;;;;5072972;28;20041;-66
2023/09/17 01:25:56;;;;;;;3.97;3.15;;;21.30;70.50;;;;;;5055989;28;20504;-66
2023/09/17 01:28:22;;;;;;;4.23;2.93;;;21.20;70.50;;;;;;5075603;28;20188;-67
2023/09/17 01:30:48;;;;;;;4.78;3.17;;;21.20;70.50;;;;;;5059274;28;20286;-65
2023/09/17 01:33:13;;;;;;;4.60;3.53;;;21.20;70.50;;;;;;5094606;28;20629;-66
2023/09/17 01:35:50;;;;;;;4.78;3.13;;;21.20;70.50;;;;;;5092903;28;20044;-66
2023/09/17 01:38:16;;;;;;;4.50;3.30;;;21.20;70.50;;;;;;5075543;28;20049;-66
2023/09/17 01:40:41;;;;;;;4.63;3.10;;;21.20;70.50;;;;;;5059269;28;20054;-65
2023/09/17 01:43:07;;;;;;;4.88;3.00;;;21.20;70.50;;;;;;5056183;28;20044;-66
2023/09/17 01:45:32;;;;;;;4.80;3.03;;;21.20;70.50;;;;;;5055520;28;20032;-66
2023/09/17 01:48:00;;;;;;;4.28;3.15;;;21.20;70.50;;;;;;5067192;28;20135;-66
2023/09/17 01:50:25;;;;;;;4.25;3.20;;;21.20;70.50;;;;;;5060267;28;20051;-66
2023/09/17 01:52:51;;;;;;;5.53;3.47;;;21.20;70.50;;;;;;5091837;28;20380;-66
2023/09/17 01:55:17;;;;;;;4.13;2.75;;;21.20;70.50;;;;;;5076105;28;20048;-66
2023/09/17 01:57:43;;;;;;;4.05;3.03;;;21.20;71.10;;;;;;5093545;28;20131;-66
2023/09/17 02:00:14;;;;;;;4.32;3.30;;;21.20;70.50;;;;;;5091885;28;20044;-66
2023/09/17 02:02:51;;;;;;;5.47;3.38;;;21.20;70.50;;;;;;5091771;28;20062;-66
2023/09/17 02:05:17;;;;;;;4.47;3.20;;;21.20;70.50;;;;;;5092138;28;20082;-66
2023/09/17 02:07:43;;;;;;;4.22;2.95;;;21.20;70.50;;;;;;5091831;28;20072;-66
2023/09/17 02:10:09;;;;;;;4.35;3.17;;;21.20;70.50;;;;;;5093725;28;20055;-66
2023/09/17 02:12:34;;;;;;;4.70;3.30;;;21.20;70.50;;;;;;5091478;28;20036;-66
2023/09/17 02:15:00;;;;;;;5.00;2.90;;;21.20;70.50;;;;;;5092837;28;20527;-66
2023/09/17 02:17:26;;;;;;;5.05;3.55;;;21.20;70.50;;;;;;5092338;28;20127;-66
2023/09/17 02:19:51;;;;;;;4.85;3.15;;;21.20;70.50;;;;;;5091344;28;20044;-66
2023/09/17 02:22:17;;;;;;;4.18;2.92;;;21.20;70.50;;;;;;5092410;28;20043;-66
2023/09/17 02:24:42;;;;;;;3.78;2.95;;;21.20;70.60;;;;;;5092014;28;20042;-66
2023/09/17 02:27:08;;;;;;;4.15;2.90;;;21.20;70.50;;;;;;5091485;28;20040;-66
2023/09/17 02:29:34;;;;;;;4.28;3.35;;;21.20;70.50;;;;;;5093459;28;20044;-66
2023/09/17 02:32:00;;;;;;;5.00;3.35;;;21.20;70.60;;;;;;5093381;28;20436;-66
2023/09/17 02:34:25;;;;;;;4.10;2.78;;;21.20;70.50;;;;;;5091758;28;20066;-66
2023/09/17 02:36:51;;;;;;;4.05;2.95;;;21.20;70.50;;;;;;5091459;28;20519;-66
2023/09/17 02:39:17;;;;;;;4.22;3.03;;;21.20;70.50;;;;;;5091685;28;20043;-66
2023/09/17 02:41:42;;;;;;;4.93;3.13;;;21.20;70.60;;;;;;5091267;28;20178;-66
2023/09/17 02:44:08;;;;;;;4.28;3.03;;;21.20;70.60;;;;;;5091898;28;20472;-66
2023/09/17 02:46:34;;;;;;;4.38;3.22;;;21.20;70.50;;;;;;5091961;28;20058;-66
2023/09/17 02:49:00;;;;;;;3.50;2.75;;;21.20;70.60;;;;;;5075284;28;20062;-66
2023/09/17 02:51:27;;;;;;;6.18;3.00;;;21.20;70.50;;;;;;5071759;28;20489;-66
2023/09/17 02:53:52;;;;;;;5.45;3.05;;;21.20;70.50;;;;;;5087141;28;20463;-66
2023/09/17 02:56:18;;;;;;;4.72;3.00;;;21.20;70.60;;;;;;5091143;28;20094;-66
2023/09/17 02:58:44;;;;;;;4.70;3.45;;;21.20;70.60;;;;;;5091242;28;20068;-66
2023/09/17 03:01:17;;;;;;;4.20;3.15;;;21.20;70.60;;;;;;5091783;28;20097;-66
2023/09/17 03:03:46;;;;;;;4.50;2.90;;;21.20;70.60;;;;;;5090609;28;20119;-66
2023/09/17 03:06:12;;;;;;;3.90;2.65;;;21.20;70.60;;;;;;5091734;28;20446;-66
2023/09/17 03:08:41;;;;;;;4.38;3.05;;;21.20;70.60;;;;;;5091112;28;20040;-66
2023/09/17 03:11:17;;;;;;;4.57;3.35;;;21.10;70.50;;;;;;5091084;28;20051;-65
2023/09/17 03:13:46;;;;;;;4.45;2.97;;;21.10;70.60;;;;;;5091518;28;20044;-66
2023/09/17 03:16:15;;;;;;;4.50;3.20;;;21.20;70.60;;;;;;5092122;28;20040;-66
2023/09/17 03:18:42;;;;;;;4.03;2.83;;;21.20;70.60;;;;;;5091412;28;20040;-66
2023/09/17 03:21:09;;;;;;;5.22;3.05;;;21.10;70.60;;;;;;5092061;28;20086;-66
2023/09/17 03:23:34;;;;;;;6.03;3.15;;;21.10;70.60;;;;;;5090359;28;20128;-66
2023/09/17 03:26:01;;;;;;;5.10;3.30;;;21.10;70.50;;;;;;5091356;28;20127;-66
2023/09/17 03:28:27;;;;;;;4.43;2.80;;;21.10;70.60;;;;;;5091324;28;20055;-66
2023/09/17 03:30:53;;;;;;;4.53;3.00;;;21.10;70.60;;;;;;5090243;28;20127;-66
2023/09/17 03:33:19;;;;;;;4.90;2.97;;;21.10;70.60;;;;;;5092553;28;20131;-66
2023/09/17 03:35:44;;;;;;;4.05;3.08;;;21.10;70.60;;;;;;5073960;28;20051;-66
2023/09/17 03:38:10;;;;;;;4.93;3.10;;;21.10;70.60;;;;;;5090629;28;20060;-66
2023/09/17 03:40:36;;;;;;;4.45;3.13;;;21.10;70.60;;;;;;5091418;28;20047;-66
2023/09/17 03:43:01;;;;;;;4.75;3.25;;;21.10;70.60;;;;;;5054220;28;20055;-66
2023/09/17 03:45:27;;;;;;;4.05;3.05;;;21.10;70.70;;;;;;5070621;28;20041;-66
2023/09/17 03:47:52;;;;;;;5.25;3.53;;;21.10;70.60;;;;;;5075061;28;20407;-66
2023/09/17 03:50:18;;;;;;;4.65;3.10;;;21.10;70.70;;;;;;5091234;28;20044;-66
2023/09/17 03:52:45;;;;;;;4.93;2.92;;;21.10;70.60;;;;;;5089949;28;20036;-66
2023/09/17 03:55:11;;;;;;;5.00;3.22;;;21.10;70.70;;;;;;5091480;28;20117;-66
2023/09/17 03:57:37;;;;;;;4.80;3.15;;;21.10;70.70;;;;;;5057092;28;20102;-66
2023/09/17 04:00:07;;;;;;;4.97;3.20;;;21.10;70.70;;;;;;5073596;28;20047;-66
2023/09/17 04:02:36;;;;;;;4.57;3.50;;;21.10;70.70;;;;;;5095542;28;20047;-66
2023/09/17 04:05:09;;;;;;;5.35;3.15;;;21.10;70.70;;;;;;5090535;28;20043;-66
2023/09/17 04:07:36;;;;;;;4.80;3.05;;;21.10;70.70;;;;;;5088548;28;20123;-66
2023/09/17 04:10:04;;;;;;;4.32;3.38;;;21.10;70.70;;;;;;5071084;28;20127;-66
2023/09/17 04:12:32;;;;;;;5.07;3.00;;;21.10;70.70;;;;;;5074460;28;20048;-66
2023/09/17 04:14:57;;;;;;;3.92;2.83;;;21.10;70.70;;;;;;5075519;28;20127;-66
2023/09/17 04:17:23;;;;;;;4.88;3.10;;;21.10;70.70;;;;;;5074524;28;20127;-66
2023/09/17 04:19:50;;;;;;;5.22;3.40;;;21.10;70.70;;;;;;5092411;28;20032;-66
2023/09/17 04:22:16;;;;;;;5.53;3.37;;;21.10;70.70;;;;;;5095005;28;20531;-66
2023/09/17 04:24:42;;;;;;;4.53;3.05;;;21.00;70.60;;;;;;5094443;28;20044;-66
2023/09/17 04:27:08;;;;;;;4.60;3.20;;;21.10;70.70;;;;;;5095160;28;20036;-66
2023/09/17 04:29:34;;;;;;;4.20;2.60;;;21.10;70.70;;;;;;5094363;28;20040;-66
2023/09/17 04:31:59;;;;;;;4.78;3.13;;;21.10;70.70;;;;;;5094403;28;20488;-66
2023/09/17 04:34:25;;;;;;;3.97;2.83;;;21.10;70.70;;;;;;5093879;28;20062;-66
2023/09/17 04:36:51;;;;;;;4.25;3.15;;;21.10;70.70;;;;;;5093903;28;20518;-65
2023/09/17 04:39:17;;;;;;;5.18;3.55;;;21.00;70.70;;;;;;5094243;28;20067;-66
2023/09/17 04:41:43;;;;;;;4.85;3.45;;;21.10;70.70;;;;;;5093701;28;20093;-66
2023/09/17 04:44:10;;;;;;;5.60;3.35;;;21.00;70.70;;;;;;5095163;28;20044;-66
2023/09/17 04:46:43;;;;;;;4.55;3.05;;;21.10;70.80;;;;;;5094582;28;20059;-66
2023/09/17 04:49:09;;;;;;;4.40;3.22;;;21.10;70.80;;;;;;5093339;28;20043;-66
2023/09/17 04:51:34;;;;;;;4.93;3.25;;;21.00;70.70;;;;;;5093946;28;20040;-66
2023/09/17 04:54:01;;;;;;;4.53;3.00;;;21.10;70.80;;;;;;5093771;28;20040;-66
2023/09/17 04:56:27;;;;;;;4.13;3.00;;;21.00;70.70;;;;;;5094844;28;20135;-66
2023/09/17 04:58:52;;;;;;;3.95;3.10;;;21.00;70.70;;;;;;5093645;28;20114;-66
2023/09/17 05:01:18;;;;;;;3.97;2.80;;;21.10;70.80;;;;;;5094023;28;20047;-66
2023/09/17 05:03:46;;;;;;;4.90;3.40;;;21.00;70.70;;;;;;5092828;28;20411;-66
2023/09/17 05:06:12;;;;;;;4.70;3.10;;;21.00;70.70;;;;;;5093650;28;20415;-66
2023/09/17 05:08:37;;;;;;;4.68;3.30;;;21.00;70.80;;;;;;5092804;28;20047;-66
2023/09/17 05:11:03;;;;;;;4.65;3.22;;;21.00;70.80;;;;;;5093746;28;20044;-66
2023/09/17 05:13:28;;;;;;;5.88;3.55;;;21.00;70.70;;;;;;5093518;28;20036;-66
2023/09/17 05:15:54;;;;;;;4.72;3.30;;;21.00;70.80;;;;;;5094434;28;20032;-66
2023/09/17 05:18:20;;;;;;;5.25;3.58;;;21.00;70.80;;;;;;5093596;28;20485;-66
2023/09/17 05:20:48;;;;;;;5.47;3.58;;;21.00;70.80;;;;;;5093081;28;20051;-66
2023/09/17 05:23:13;;;;;;;5.67;3.03;;;21.00;70.80;;;;;;5092608;28;20047;-66
2023/09/17 05:25:39;;;;;;;5.15;3.72;;;21.00;70.80;;;;;;5093533;28;20209;-66
2023/09/17 05:28:06;;;;;;;5.10;3.78;;;21.00;70.80;;;;;;5093165;28;20051;-66
2023/09/17 05:30:35;;;;;;;6.03;3.90;;;21.00;70.80;;;;;;5092611;28;20073;-66
2023/09/17 05:33:01;;;;;;;5.70;3.70;;;21.00;70.80;;;;;;5093421;28;20170;-66
2023/09/17 05:35:28;;;;;;;5.22;3.45;;;21.00;70.80;;;;;;5072764;28;20055;-66
2023/09/17 05:37:54;;;;;;;5.25;3.83;;;21.00;70.80;;;;;;5072986;28;20113;-66
2023/09/17 05:40:20;;;;;;;5.32;3.50;;;21.00;70.80;;;;;;5091547;28;20492;-66
2023/09/17 05:42:45;;;;;;;4.85;3.38;;;21.00;70.80;;;;;;5092959;28;20082;-66
2023/09/17 05:45:11;;;;;;;5.75;3.92;;;21.00;70.90;;;;;;5092167;28;20036;-66
2023/09/17 05:47:37;;;;;;;4.78;3.35;;;21.00;70.90;;;;;;5092837;28;20040;-66
2023/09/17 05:50:03;;;;;;;4.57;3.50;;;21.00;70.80;;;;;;5093109;28;20063;-66
2023/09/17 05:52:29;;;;;;;5.13;3.83;;;21.00;70.80;;;;;;5093547;28;20484;-66
2023/09/17 05:54:55;;;;;;;4.30;3.40;;;21.00;70.80;;;;;;5092395;28;20043;-66
2023/09/17 05:57:20;;;;;;;6.20;3.95;;;21.00;70.90;;;;;;5092774;28;20060;-66
2023/09/17 05:59:46;;;;;;;4.43;3.33;;;21.00;70.90;;;;;;5099041;28;20078;-66
2023/09/17 06:02:11;;;;;;;6.57;4.40;;;21.00;70.90;;;;;;5114404;28;20052;-66
2023/09/17 06:04:37;;;;;;;5.47;3.67;;;21.00;70.90;;;;;;5086919;28;20468;-66
2023/09/17 06:07:03;;;;;;;4.90;3.45;;;21.00;70.90;;;;;;5108249;28;20044;-66
2023/09/17 06:09:30;;;;;;;4.80;3.45;;;20.90;70.90;;;;;;5102525;28;20040;-66
2023/09/17 06:11:56;;;;;;;4.95;3.75;;;21.00;70.90;;;;;;5092808;28;20047;-66
2023/09/17 06:14:22;;;;;;;5.15;3.30;;;21.00;71.00;;;;;;5093631;28;20048;-66
2023/09/17 06:16:48;;;;;;;5.38;3.92;;;21.00;70.90;;;;;;5092019;28;20051;-66
2023/09/17 06:19:14;;;;;;;6.47;3.97;;;21.00;71.10;;;;;;5091954;28;20068;-66
2023/09/17 06:21:43;;;;;;;5.72;3.90;;;21.00;71.00;;;;;;5093645;28;20071;-66
2023/09/17 06:24:09;;;;;;;5.47;3.78;;;21.00;71.00;;;;;;5099958;28;20132;-66
2023/09/17 06:26:37;;;;;;;6.70;3.83;;;20.90;70.90;;;;;;5091215;28;20127;-66
2023/09/17 06:29:03;;;;;;;5.82;3.80;;;20.90;70.90;;;;;;5092218;28;20488;-66
2023/09/17 06:31:29;;;;;;;5.57;3.75;;;20.90;70.90;;;;;;5093562;28;20043;-66
2023/09/17 06:33:54;;;;;;;6.22;4.15;;;21.00;71.00;;;;;;5091753;28;20048;-66
2023/09/17 06:36:21;;;;;;;7.10;4.07;;;20.90;71.00;;;;;;5092294;28;20040;-66
2023/09/17 06:38:47;;;;;;;5.10;3.83;;;20.90;71.00;;;;;;5074718;28;20530;-66
2023/09/17 06:41:13;;;;;;;5.10;4.00;;;21.00;71.10;;;;;;5091312;28;20153;-66
2023/09/17 06:43:39;;;;;;;5.15;3.83;;;20.90;71.00;;;;;;5092162;28;20084;-66
2023/09/17 06:46:05;;;;;;;5.97;3.90;;;20.90;71.00;;;;;;5102570;28;20039;-66
2023/09/17 06:48:31;;;;;;;6.70;4.43;;;20.90;71.00;;;;;;5107822;28;20377;-66
2023/09/17 06:50:57;;;;;;;6.00;3.90;;;20.90;71.00;;;;;;5074524;28;20043;-66
2023/09/17 06:53:23;;;;;;;4.72;3.60;;;20.90;71.00;;;;;;5074631;28;20377;-66
2023/09/17 06:55:49;;;;;;;5.32;3.42;;;20.90;71.00;;;;;;5091721;28;20074;-66
2023/09/17 06:58:16;;;;;;;5.53;3.53;;;20.90;71.00;;;;;;5091771;28;20480;-65
2023/09/17 07:00:43;;;;;;;5.13;3.90;;;20.90;71.00;;;;;;5091561;28;20054;-65
2023/09/17 07:03:09;;;;;;;5.57;3.80;;;20.90;71.00;;;;;;5091358;28;20052;-66
2023/09/17 07:05:34;;;;;;;5.88;3.95;;;20.90;71.10;;;;;;5091139;28;20101;-65
2023/09/17 07:08:00;;;;;;;5.00;3.67;;;20.90;71.10;;;;;;5091003;28;20048;-65
2023/09/17 07:10:25;;;;;;;6.03;4.10;;;20.90;71.10;;;;;;5092677;28;20491;-65
2023/09/17 07:12:51;;;;;;;5.30;3.92;;;20.90;71.00;;;;;;5091400;28;20047;-65
2023/09/17 07:15:18;;;;;;;6.85;4.55;;;20.90;71.00;;;;;;5090711;28;20903;-65
2023/09/17 07:17:44;;;;;;;5.63;4.00;;;21.00;71.10;;;;;;5091256;28;20139;-65
2023/09/17 07:20:13;;;;;;;5.95;4.32;;;21.00;71.10;;;;;;5091731;28;20118;-65
2023/09/17 07:22:42;;;;;;;5.80;4.30;;;21.00;71.10;;;;;;5090421;28;20040;-65
2023/09/17 07:25:08;;;;;;;5.93;4.45;;;20.90;71.10;;;;;;5092481;28;20040;-65
2023/09/17 07:27:33;;;;;;;6.68;4.78;;;21.00;71.10;;;;;;5092651;28;20040;-65
2023/09/17 07:29:59;;;;;;;6.25;4.35;;;21.00;71.20;;;;;;5090525;28;20075;-65
2023/09/17 07:32:28;;;;;;;5.57;4.57;;;21.00;71.20;;;;;;5092905;28;20040;-65
2023/09/17 07:34:54;;;;;;;7.20;4.88;;;21.00;71.20;;;;;;5090904;28;20044;-65
2023/09/17 07:37:20;;;;;;;7.00;4.82;;;21.00;71.20;;;;;;5090231;28;20067;-65
2023/09/17 07:39:47;;;;;;;6.38;4.47;;;21.00;71.20;;;;;;5092065;28;20056;-65
2023/09/17 07:42:13;;;;;;;5.40;4.07;;;21.00;71.20;;;;;;5091649;28;20084;-65
2023/09/17 07:44:40;;;;;;;7.35;4.60;;;21.00;71.10;;;;;;5094066;28;20050;-65
2023/09/17 07:47:06;;;;;;;5.82;4.53;;;21.00;71.20;;;;;;5131642;27;20124;-65
2023/09/17 07:49:32;;;;;;;5.45;3.88;;;21.00;71.10;;;;;;5108344;28;20177;-65
2023/09/17 07:51:58;;;;;;;5.18;4.28;;;21.00;71.10;;;;;;5095780;28;20111;-65
2023/09/17 07:54:23;;;;;;;5.95;4.53;;;21.00;71.10;;;;;;5095438;28;20044;-64
2023/09/17 07:56:49;;;;;;;6.53;4.00;;;21.00;71.10;;;;;;5096430;28;20047;-65
2023/09/17 07:59:14;;;;;;;6.38;4.47;;;21.00;71.10;;;;;;5094380;28;20044;-65
2023/09/17 08:01:40;;;;;;;7.25;4.70;;;21.00;71.10;;;;;;5094951;28;20138;-65
2023/09/17 08:04:05;;;;;;;6.35;4.75;;;21.00;71.10;;;;;;5094981;28;20040;-65
2023/09/17 08:06:35;;;;;;;6.15;4.07;;;21.00;71.20;;;;;;5094351;28;20044;-67
2023/09/17 08:09:00;;;;;;;6.72;4.50;;;21.00;71.10;;;;;;5095059;28;20044;-65
2023/09/17 08:11:27;;;;;;;6.22;4.68;;;21.00;71.10;;;;;;5094269;28;20138;-65
2023/09/17 08:13:52;;;;;;;6.22;4.10;;;21.00;71.10;;;;;;5094504;28;20071;-65
2023/09/17 08:16:19;;;;;;;6.10;4.63;;;21.10;71.20;;;;;;5094955;28;20079;-65
2023/09/17 08:18:45;;;;;;;7.13;4.57;;;21.00;71.10;;;;;;5077047;28;20039;-65
2023/09/17 08:21:11;;;;;;;7.05;4.63;;;21.10;71.20;;;;;;5096132;28;20377;-65
2023/09/17 08:23:36;;;;;;;6.60;4.50;;;21.10;71.20;;;;;;5094545;28;20044;-65
2023/09/17 08:26:04;;;;;;;5.90;4.15;;;21.10;71.20;;;;;;5093685;28;20139;-65
2023/09/17 08:28:30;;;;;;;6.35;4.72;;;21.10;71.20;;;;;;5094994;28;20566;-65
2023/09/17 08:30:55;;;;;;;7.75;4.65;;;21.10;71.20;;;;;;5094212;28;20142;-65
2023/09/17 08:33:21;;;;;;;6.55;4.80;;;21.10;71.20;;;;;;5093789;28;20040;-65
2023/09/17 08:35:46;;;;;;;7.55;4.80;;;21.00;71.10;;;;;;5094023;28;20058;-65
2023/09/17 08:38:12;;;;;;;7.18;4.63;;;21.10;71.20;;;;;;5077349;28;20094;-65
2023/09/17 08:40:37;;;;;;;6.57;5.13;;;21.10;71.20;;;;;;5076355;28;20129;-64
2023/09/17 08:43:04;;;;;;;7.30;4.80;;;21.00;71.20;;;;;;5077895;28;20083;-65
2023/09/17 08:45:30;;;;;;;6.82;4.80;;;21.10;71.30;;;;;;5094152;28;20044;-65
2023/09/17 08:47:56;;;;;;;6.38;4.78;;;21.10;71.20;;;;;;5076735;28;20056;-65
2023/09/17 08:50:21;;;;;;;5.55;4.25;;;21.10;71.20;;;;;;5077366;28;20040;-65
2023/09/17 08:52:52;;;;;;;7.60;4.47;;;21.00;71.20;;;;;;5077333;28;20047;-65
2023/09/17 08:55:17;;;;;;;8.07;5.07;;;21.10;71.20;;;;;;5076887;28;20036;-65
2023/09/17 08:57:43;;;;;;;7.00;4.68;;;21.10;71.20;;;;;;5076313;28;20576;-65
2023/09/17 09:00:10;;;;;;;6.72;4.55;;;21.10;71.20;;;;;;5077041;28;20051;-65
2023/09/17 09:02:51;;;;;;;6.43;4.40;;;21.10;71.20;;;;;;5076234;28;20395;-65
2023/09/17 09:05:17;;;;;;;7.93;4.53;;;21.10;71.20;;;;;;5050576;28;20131;-65
2023/09/17 09:07:43;;;;;;;7.28;4.93;;;21.10;71.20;;;;;;5072760;28;20549;-65
2023/09/17 09:10:09;;;;;;;6.93;4.93;;;21.10;71.20;;;;;;5075177;28;20103;-65
2023/09/17 09:12:37;;;;;;;7.60;4.60;;;21.10;71.30;;;;;;5057272;28;20127;-65
2023/09/17 09:15:05;;;;;;;6.68;4.40;;;21.10;71.20;;;;;;5064509;28;20036;-65
2023/09/17 09:17:30;;;;;;;6.30;4.80;;;21.10;71.20;;;;;;5077337;28;20044;-65
2023/09/17 09:19:56;;;;;;;6.18;4.45;;;21.10;71.30;;;;;;5093312;28;20043;-65
2023/09/17 09:22:23;;;;;;;6.78;5.00;;;21.10;71.30;;;;;;5059401;28;20055;-65
2023/09/17 09:24:49;;;;;;;6.28;4.63;;;21.10;71.30;;;;;;5093131;28;20042;-65
2023/09/17 09:27:15;;;;;;;7.85;4.90;;;21.10;71.30;;;;;;5093534;28;20062;-65
2023/09/17 09:29:42;;;;;;;6.45;4.47;;;21.10;71.30;;;;;;5092556;28;20032;-65
2023/09/17 09:32:10;;;;;;;6.93;4.68;;;21.10;71.30;;;;;;5093577;28;20054;-65
2023/09/17 09:34:42;;;;;;;6.88;4.70;;;21.10;71.30;;;;;;5076516;28;20035;-65
2023/09/17 09:37:08;;;;;;;6.28;4.57;;;21.10;71.30;;;;;;5092281;28;20138;-65
2023/09/17 09:39:37;;;;;;;7.35;5.05;;;21.10;71.30;;;;;;5092773;28;20128;-64
2023/09/17 09:42:07;;;;;;;6.32;4.18;;;21.10;71.30;;;;;;5093298;28;20088;-65
2023/09/17 09:44:33;;;;;;;6.85;4.85;;;21.10;71.40;;;;;;5075384;28;20616;-65
2023/09/17 09:46:59;;;;;;;7.55;5.30;;;21.10;71.30;;;;;;5093302;28;20065;-64
2023/09/17 09:49:25;;;;;;;6.55;4.53;;;21.10;71.30;;;;;;5093220;28;20040;-65
2023/09/17 09:51:51;;;;;;;7.10;5.15;;;21.10;71.30;;;;;;5091833;28;20040;-65
2023/09/17 09:54:17;;;;;;;6.55;5.18;;;21.10;71.30;;;;;;5093320;28;20059;-64
2023/09/17 09:56:44;;;;;;;5.95;4.65;;;21.20;71.40;;;;;;5093470;28;20044;-64
2023/09/17 09:59:10;;;;;;;6.97;4.68;;;21.20;71.30;;;;;;5075843;28;20044;-64
2023/09/17 10:01:36;;;;;;;6.97;5.03;;;21.20;71.30;;;;;;5055341;28;20041;-65
2023/09/17 10:04:05;;;;;;;7.18;4.50;;;21.20;71.30;;;;;;5071932;28;20075;-65
2023/09/17 10:06:30;;;;;;;6.25;5.22;;;21.10;71.20;;;;;;5089788;28;20411;-65
2023/09/17 10:08:56;;;;;;;6.88;4.72;;;21.20;71.20;;;;;;5091613;28;20035;-65
2023/09/17 10:11:23;;;;;;;6.43;4.95;;;21.20;71.20;;;;;;5075118;28;20488;-65
2023/09/17 10:13:52;;;;;;;6.20;4.80;;;21.20;71.20;;;;;;5075683;28;20088;-65
2023/09/17 10:16:19;;;;;;;5.63;4.28;;;21.20;71.30;;;;;;5075770;28;20544;-64
2023/09/17 10:18:45;;;;;;;5.30;4.03;;;21.20;71.20;;;;;;5074977;28;20048;-65
2023/09/17 10:21:10;;;;;;;6.50;4.47;;;21.20;71.20;;;;;;5075454;28;20048;-64
2023/09/17 10:23:36;;;;;;;6.85;4.95;;;21.20;71.20;;;;;;5092441;28;20066;-65
2023/09/17 10:26:02;;;;;;;5.63;3.85;;;21.20;71.10;;;;;;5054753;28;20059;-65
2023/09/17 10:28:27;;;;;;;5.30;3.90;;;21.30;71.20;;;;;;5055487;28;20396;-65
2023/09/17 10:30:54;;;;;;;6.05;4.22;;;21.30;71.20;;;;;;5066075;28;20051;-65
2023/09/17 10:33:20;;;;;;;6.40;4.30;;;21.30;71.10;;;;;;5075194;28;20068;-65
2023/09/17 10:35:46;;;;;;;6.70;4.35;;;21.30;71.20;;;;;;5074633;28;20082;-64
2023/09/17 10:38:11;;;;;;;5.22;3.92;;;21.30;71.10;;;;;;5075088;28;20105;-65
2023/09/17 10:40:37;;;;;;;6.22;3.88;;;21.30;71.10;;;;;;5091118;28;20032;-64
2023/09/17 10:43:05;;;;;;;5.90;4.20;;;21.30;71.10;;;;;;5092151;28;20045;-65
2023/09/17 10:45:33;;;;;;;5.63;4.07;;;21.30;71.20;;;;;;5092288;28;20039;-65
2023/09/17 10:47:59;;;;;;;6.40;4.07;;;21.30;71.20;;;;;;5074854;28;20555;-65
2023/09/17 10:50:27;;;;;;;6.60;3.92;;;21.20;71.10;;;;;;5092182;28;20132;-65
2023/09/17 10:52:53;;;;;;;6.25;4.40;;;21.20;71.10;;;;;;5091732;28;20119;-65
2023/09/17 10:55:19;;;;;;;5.72;3.80;;;21.20;71.10;;;;;;5074211;28;20554;-64
2023/09/17 10:57:47;;;;;;;5.13;3.83;;;21.20;71.20;;;;;;5074764;28;20047;-65
2023/09/17 11:00:17;;;;;;;5.90;4.18;;;21.20;71.20;;;;;;5074442;28;20028;-65
2023/09/17 11:02:54;;;;;;;5.07;4.03;;;21.20;71.20;;;;;;5058300;28;20511;-65
2023/09/17 11:05:21;;;;;;;5.15;3.70;;;21.20;71.20;;;;;;5059821;28;20036;-65
2023/09/17 11:07:46;;;;;;;5.72;4.13;;;21.20;71.30;;;;;;5073987;28;20040;-65
2023/09/17 11:10:12;;;;;;;5.65;3.80;;;21.20;71.30;;;;;;5057942;28;20098;-64
2023/09/17 11:12:38;;;;;;;6.45;4.47;;;21.30;71.30;;;;;;5074616;28;20044;-65
2023/09/17 11:15:05;;;;;;;4.90;3.70;;;21.30;71.30;;;;;;5057359;28;20081;-64
2023/09/17 11:17:34;;;;;;;7.03;4.28;;;21.30;71.30;;;;;;5074894;28;20079;-64
2023/09/17 11:20:00;;;;;;;6.22;4.40;;;21.30;71.30;;;;;;5091059;28;20403;-65
2023/09/17 11:22:34;;;;;;;5.88;3.67;;;21.30;71.30;;;;;;5090630;28;20052;-65
2023/09/17 11:25:00;;;;;;;5.40;3.60;;;21.30;71.30;;;;;;5075218;28;20048;-65
2023/09/17 11:27:49;;;;;;;5.13;3.42;;;21.30;71.20;;;;;;5058037;28;20048;-65
2023/09/17 11:30:18;;;;;;;4.53;3.50;;;21.30;71.20;;;;;;5090726;28;20507;-64
2023/09/17 11:32:53;;;;;;;5.90;3.67;;;21.30;71.20;;;;;;5089862;28;20080;-66
2023/09/17 11:35:20;;;;;;;5.18;3.55;;;21.30;71.80;;;;;;5084087;28;20041;-64
2023/09/17 11:37:46;;;;;;;6.55;3.72;;;21.40;71.20;;;;;;5090072;28;20661;-68
2023/09/17 11:40:12;;;;;;;7.05;4.47;;;21.40;71.30;;;;;;5091151;28;20118;-66
2023/09/17 11:42:40;;;;;;;8.45;3.67;;;21.40;71.90;;;;;;5055804;28;20048;-65
2023/09/17 11:45:06;;;;;;;6.53;4.22;;;21.40;71.40;;;;;;5067866;28;20043;-68
2023/09/17 11:47:33;;;;;;;7.82;4.20;;;21.40;72.10;;;;;;5072387;28;20032;-65
2023/09/17 11:49:58;;;;;;;6.88;4.10;;;21.40;71.60;;;;;;5056354;28;20044;-65
2023/09/17 11:52:25;;;;;;;6.00;3.90;;;21.40;71.50;;;;;;5073817;28;20410;-65
2023/09/17 11:54:53;;;;;;;7.03;4.20;;;21.40;71.40;;;;;;5090780;28;20085;-65
2023/09/17 11:57:23;;;;;;;6.43;3.90;;;21.40;71.50;;;;;;5089827;28;20074;-65
2023/09/17 11:59:49;;;;;;;6.07;4.15;;;21.50;71.70;;;;;;5092381;28;20082;-66
2023/09/17 12:02:16;;;;;;;6.25;4.22;;;21.50;71.80;;;;;;5090879;28;20063;-66
2023/09/17 12:04:42;;;;;;;5.53;3.53;;;21.50;71.80;;;;;;5075438;28;20036;-66
2023/09/17 12:07:10;;;;;;;5.72;3.53;;;21.50;71.80;;;;;;5073825;28;20048;-66
2023/09/17 12:09:58;;;;;;;6.05;3.65;;;21.50;71.70;;;;;;5107916;28;20051;-65
2023/09/17 12:12:24;;;;;;;4.80;3.33;;;21.50;71.60;;;;;;5076016;28;20123;-66
2023/09/17 12:14:49;;;;;;;5.85;3.92;;;21.50;71.60;;;;;;5090533;28;20131;-65
2023/09/17 12:17:16;;;;;;;5.10;3.70;;;21.50;71.50;;;;;;5073886;28;20445;-65
2023/09/17 12:19:42;;;;;;;8.93;4.60;;;21.50;71.50;;;;;;5073296;28;20472;-65
2023/09/17 12:22:08;;;;;;;9.20;4.03;;;21.50;71.60;;;;;;5073860;28;20105;-66
2023/09/17 12:24:44;;;;;;;6.60;3.72;;;21.60;71.70;;;;;;5090266;28;20071;-66
2023/09/17 12:27:29;;;;;;;7.90;4.32;;;21.60;71.70;;;;;;5090923;28;20048;-65
2023/09/17 12:29:55;;;;;;;7.25;4.13;;;21.60;71.70;;;;;;5090645;28;20044;-65
2023/09/17 12:32:24;;;;;;;9.85;4.53;;;21.60;71.80;;;;;;5091263;28;20110;-66
2023/09/17 12:34:50;;;;;;;11.80;4.18;;;21.60;71.80;;;;;;5095302;28;20416;-66
2023/09/17 12:37:17;;;;;;;9.07;4.40;;;21.60;71.90;;;;;;5094110;28;20055;-66
2023/09/17 12:39:43;;;;;;;9.30;4.70;;;21.60;71.90;;;;;;5093462;28;20051;-66
2023/09/17 12:42:09;;;;;;;9.55;4.50;;;21.60;72.00;;;;;;5077299;28;20048;-67
2023/09/17 12:44:34;;;;;;;8.23;4.85;;;21.60;71.90;;;;;;5091222;28;20059;-66
2023/09/17 12:47:00;;;;;;;12.63;5.00;;;21.60;72.20;;;;;;5093719;28;20109;-67